createdAt,value
2022-10-13T00:00:13.356Z,95654.50
2022-10-13T00:02:39.729Z,95651.97
2022-10-13T00:05:06.101Z,95658.06
2022-10-13T00:07:32.483Z,95653.88
2022-10-13T00:09:58.831Z,95655.28
2022-10-13T00:12:25.192Z,95662.31
2022-10-13T00:14:51.569Z,95665.72
2022-10-13T00:17:17.925Z,95668.78
2022-10-13T00:19:44.290Z,95667.56
2022-10-13T00:22:10.666Z,95668.84
2022-10-13T00:24:37.037Z,95674.03
2022-10-13T00:27:03.409Z,95672.56
2022-10-13T00:29:29.759Z,95669.50
2022-10-13T00:31:56.117Z,95673.28
2022-10-13T00:34:22.477Z,95679.78
2022-10-13T00:36:48.841Z,95678.06
2022-10-13T00:39:15.211Z,95678.50
2022-10-13T00:41:41.573Z,95689.09
2022-10-13T00:44:07.940Z,95685.97
2022-10-13T00:46:34.313Z,95675.59
2022-10-13T00:49:00.665Z,95671.00
2022-10-13T00:51:27.041Z,95676.63
2022-10-13T00:53:53.401Z,95670.13
2022-10-13T00:56:19.751Z,95670.25
2022-10-13T00:58:46.112Z,95668.56
2022-10-13T01:01:12.500Z,95667.09
2022-10-13T01:03:38.874Z,95674.59
2022-10-13T01:06:05.226Z,95668.50
2022-10-13T01:08:31.597Z,95664.19
2022-10-13T01:10:57.946Z,95669.97
2022-10-13T01:13:24.321Z,95668.63
2022-10-13T01:15:50.680Z,95666.34
2022-10-13T01:18:17.039Z,95668.03
2022-10-13T01:20:43.406Z,95665.00
2022-10-13T01:23:09.761Z,95667.44
2022-10-13T01:25:36.124Z,95660.19
2022-10-13T01:28:02.467Z,95654.25
2022-10-13T01:30:28.836Z,95661.50
2022-10-13T01:32:55.196Z,95666.81
2022-10-13T01:35:21.564Z,95658.25
2022-10-13T01:37:47.921Z,95655.13
2022-10-13T01:40:14.296Z,95655.63
2022-10-13T01:42:40.650Z,95655.28
2022-10-13T01:45:07.007Z,95646.81
2022-10-13T01:47:33.358Z,95643.00
2022-10-13T01:49:59.833Z,95636.84
2022-10-13T01:52:26.245Z,95639.88
2022-10-13T01:54:52.596Z,95646.72
2022-10-13T01:57:19.000Z,95648.16
2022-10-13T01:59:45.361Z,95643.19
2022-10-13T02:02:11.715Z,95641.84
2022-10-13T02:04:38.069Z,95643.75
2022-10-13T02:07:04.450Z,95645.41
2022-10-13T02:09:30.799Z,95648.47
2022-10-13T02:11:57.150Z,95656.03
2022-10-13T02:14:23.523Z,95650.72
2022-10-13T02:16:49.900Z,95650.66
2022-10-13T02:19:16.246Z,95659.81
2022-10-13T02:21:42.611Z,95650.06
2022-10-13T02:24:08.963Z,95647.13
2022-10-13T02:26:35.347Z,95639.56
2022-10-13T02:29:01.716Z,95641.34
2022-10-13T02:31:28.269Z,95640.22
2022-10-13T02:33:54.667Z,95630.88
2022-10-13T02:36:21.031Z,95631.13
2022-10-13T02:38:47.387Z,95633.72
2022-10-13T02:41:13.743Z,95635.03
2022-10-13T02:43:40.097Z,95638.75
2022-10-13T02:46:06.465Z,95630.84
2022-10-13T02:48:32.823Z,95634.78
2022-10-13T02:50:59.168Z,95642.88
2022-10-13T02:53:25.531Z,95645.78
2022-10-13T02:55:51.879Z,95643.41
2022-10-13T02:58:18.257Z,95641.22
2022-10-13T03:00:44.636Z,95645.31
2022-10-13T03:03:11.031Z,95636.47
2022-10-13T03:05:37.404Z,95639.97
2022-10-13T03:08:03.760Z,95635.53
2022-10-13T03:10:30.120Z,95629.81
2022-10-13T03:12:56.482Z,95628.13
2022-10-13T03:15:22.841Z,95635.09
2022-10-13T03:17:49.189Z,95628.94
2022-10-13T03:20:15.551Z,95627.69
2022-10-13T03:22:43.963Z,95617.41
2022-10-13T03:25:13.723Z,95617.06
2022-10-13T03:27:40.103Z,95622.06
2022-10-13T03:30:06.467Z,95615.03
2022-10-13T03:32:32.838Z,95616.84
2022-10-13T03:34:59.197Z,95618.56
2022-10-13T03:37:25.560Z,95618.56
2022-10-13T03:39:51.924Z,95622.34
2022-10-13T03:42:18.742Z,95620.38
2022-10-13T03:44:45.286Z,95626.53
2022-10-13T03:47:11.641Z,95626.59
2022-10-13T03:49:38.004Z,95633.13
2022-10-13T03:52:04.358Z,95631.81
2022-10-13T03:54:30.708Z,95632.28
2022-10-13T03:56:57.080Z,95628.31
2022-10-13T03:59:23.441Z,95628.91
2022-10-13T04:01:49.847Z,95628.19
2022-10-13T04:04:16.207Z,95628.69
2022-10-13T04:06:42.566Z,95624.53
2022-10-13T04:09:08.946Z,95631.31
2022-10-13T04:11:35.296Z,95634.34
2022-10-13T04:14:01.672Z,95631.66
2022-10-13T04:16:28.019Z,95621.97
2022-10-13T04:18:54.359Z,95626.88
2022-10-13T04:21:20.719Z,95626.44
2022-10-13T04:23:47.081Z,95620.88
2022-10-13T04:26:13.445Z,95616.19
2022-10-13T04:28:39.868Z,95617.91
2022-10-13T04:31:06.279Z,95619.69
2022-10-13T04:33:32.653Z,95621.28
2022-10-13T04:35:58.998Z,95623.09
2022-10-13T04:38:25.370Z,95622.31
2022-10-13T04:40:51.720Z,95622.63
2022-10-13T04:43:18.094Z,95603.88
2022-10-13T04:45:44.475Z,95613.53
2022-10-13T04:48:10.851Z,95610.06
2022-10-13T04:50:37.216Z,95620.56
2022-10-13T04:53:03.575Z,95621.34
2022-10-13T04:55:29.943Z,95618.50
2022-10-13T04:57:56.290Z,95623.97
2022-10-13T05:00:22.719Z,95625.31
2022-10-13T05:02:49.087Z,95619.09
2022-10-13T05:05:15.458Z,95615.31
2022-10-13T05:07:41.815Z,95600.75
2022-10-13T05:10:08.162Z,95603.78
2022-10-13T05:12:34.520Z,95616.03
2022-10-13T05:15:00.885Z,95619.22
2022-10-13T05:17:29.759Z,95622.00
2022-10-13T05:19:59.196Z,95619.53
2022-10-13T05:22:25.551Z,95620.72
2022-10-13T05:24:51.905Z,95621.56
2022-10-13T05:27:18.269Z,95617.72
2022-10-13T05:29:44.634Z,95604.56
2022-10-13T05:32:10.982Z,95599.78
2022-10-13T05:34:37.356Z,95606.47
2022-10-13T05:37:03.727Z,95597.25
2022-10-13T05:39:30.145Z,95599.91
2022-10-13T05:41:56.491Z,95594.53
2022-10-13T05:44:22.830Z,95596.34
2022-10-13T05:46:49.195Z,95596.44
2022-10-13T05:49:15.549Z,95601.78
2022-10-13T05:51:41.925Z,95601.06
2022-10-13T05:54:08.264Z,95604.34
2022-10-13T05:56:34.627Z,95599.63
2022-10-13T05:59:01.166Z,95600.91
2022-10-13T06:01:27.580Z,95596.94
2022-10-13T06:03:53.975Z,95606.25
2022-10-13T06:06:20.339Z,95602.72
2022-10-13T06:08:46.700Z,95594.72
2022-10-13T06:11:13.057Z,95599.84
2022-10-13T06:13:39.429Z,95600.81
2022-10-13T06:16:05.775Z,95603.59
2022-10-13T06:18:32.133Z,95598.63
2022-10-13T06:20:58.509Z,95603.97
2022-10-13T06:23:24.855Z,95609.72
2022-10-13T06:25:51.234Z,95618.75
2022-10-13T06:28:17.628Z,95613.59
2022-10-13T06:30:43.988Z,95623.97
2022-10-13T06:33:10.339Z,95619.63
2022-10-13T06:35:36.689Z,95611.56
2022-10-13T06:38:03.042Z,95605.28
2022-10-13T06:40:29.395Z,95595.50
2022-10-13T06:42:55.748Z,95605.47
2022-10-13T06:45:22.101Z,95602.28
2022-10-13T06:47:48.457Z,95601.69
2022-10-13T06:50:14.852Z,95609.16
2022-10-13T06:52:41.195Z,95604.63
2022-10-13T06:55:07.573Z,95612.94
2022-10-13T06:57:33.931Z,95615.16
2022-10-13T07:00:00.291Z,95609.38
2022-10-13T07:02:26.647Z,95605.78
2022-10-13T07:04:53.023Z,95614.50
2022-10-13T07:07:19.386Z,95611.00
2022-10-13T07:09:45.740Z,95620.09
2022-10-13T07:12:12.100Z,95617.00
2022-10-13T07:14:40.482Z,95613.25
2022-10-13T07:17:10.019Z,95607.88
2022-10-13T07:19:36.394Z,95601.56
2022-10-13T07:22:02.857Z,95599.09
2022-10-13T07:24:29.210Z,95599.63
2022-10-13T07:26:55.564Z,95590.16
2022-10-13T07:29:21.931Z,95592.22
2022-10-13T07:31:48.289Z,95591.38
2022-10-13T07:34:14.662Z,95597.81
2022-10-13T07:36:41.001Z,95602.28
2022-10-13T07:39:07.354Z,95604.19
2022-10-13T07:41:33.727Z,95602.22
2022-10-13T07:44:00.094Z,95601.56
2022-10-13T07:46:26.457Z,95604.72
2022-10-13T07:48:52.813Z,95603.56
2022-10-13T07:51:19.179Z,95597.94
2022-10-13T07:53:45.519Z,95596.44
2022-10-13T07:56:11.923Z,95595.97
2022-10-13T07:58:38.264Z,95590.34
2022-10-13T08:01:04.621Z,95595.56
2022-10-13T08:03:31.026Z,95591.72
2022-10-13T08:05:57.389Z,95596.41
2022-10-13T08:08:23.742Z,95591.13
2022-10-13T08:10:50.157Z,95589.53
2022-10-13T08:13:16.545Z,95599.41
2022-10-13T08:15:42.898Z,95591.66
2022-10-13T08:18:09.292Z,95591.81
2022-10-13T08:20:41.416Z,95602.13
2022-10-13T08:23:10.025Z,95600.97
2022-10-13T08:25:36.382Z,95612.66
2022-10-13T08:28:02.754Z,95609.47
2022-10-13T08:30:29.219Z,95615.34
2022-10-13T08:32:55.613Z,95609.56
2022-10-13T08:35:21.968Z,95609.09
2022-10-13T08:37:48.321Z,95607.41
2022-10-13T08:40:14.676Z,95600.97
2022-10-13T08:42:41.041Z,95608.75
2022-10-13T08:45:40.359Z,95603.56
2022-10-13T08:47:53.741Z,95607.44
2022-10-13T08:50:20.093Z,95600.31
2022-10-13T08:52:46.434Z,95587.38
2022-10-13T08:55:12.840Z,95570.66
2022-10-13T08:57:39.204Z,95570.03
2022-10-13T09:00:05.558Z,95576.13
2022-10-13T09:02:31.907Z,95580.59
2022-10-13T09:04:58.269Z,95585.66
2022-10-13T09:07:24.642Z,95586.63
2022-10-13T09:09:50.981Z,95593.31
2022-10-13T09:12:17.512Z,95590.91
2022-10-13T09:14:44.092Z,95591.19
2022-10-13T09:17:10.495Z,95589.78
2022-10-13T09:19:36.895Z,95593.66
2022-10-13T09:22:03.256Z,95588.47
2022-10-13T09:24:29.606Z,95593.72
2022-10-13T09:26:55.955Z,95592.31
2022-10-13T09:29:22.309Z,95607.47
2022-10-13T09:31:48.665Z,95595.28
2022-10-13T09:34:15.025Z,95593.88
2022-10-13T09:36:41.365Z,95594.56
2022-10-13T09:39:07.721Z,95593.31
2022-10-13T09:41:34.068Z,95597.75
2022-10-13T09:44:00.429Z,95594.06
2022-10-13T09:46:26.778Z,95584.16
2022-10-13T09:48:53.147Z,95585.31
2022-10-13T09:51:19.574Z,95592.47
2022-10-13T09:53:45.924Z,95596.94
2022-10-13T09:56:12.277Z,95587.50
2022-10-13T09:58:38.659Z,95586.47
2022-10-13T10:01:05.057Z,95590.63
2022-10-13T10:03:31.419Z,95577.06
2022-10-13T10:05:57.855Z,95584.34
2022-10-13T10:08:33.277Z,95578.81
2022-10-13T10:11:05.303Z,95573.06
2022-10-13T10:13:31.654Z,95561.34
2022-10-13T10:15:58.016Z,95563.56
2022-10-13T10:18:24.373Z,95569.19
2022-10-13T10:20:50.743Z,95556.88
2022-10-13T10:23:17.159Z,95562.56
2022-10-13T10:25:43.521Z,95568.28
2022-10-13T10:28:09.903Z,95552.50
2022-10-13T10:30:36.289Z,95556.19
2022-10-13T10:33:02.651Z,95550.41
2022-10-13T10:35:29.003Z,95542.81
2022-10-13T10:37:55.357Z,95559.03
2022-10-13T10:40:21.938Z,95554.75
2022-10-13T10:42:51.989Z,95556.09
2022-10-13T10:45:18.775Z,95551.16
2022-10-13T10:47:45.122Z,95543.44
2022-10-13T10:50:11.536Z,95545.97
2022-10-13T10:52:37.947Z,95548.63
2022-10-13T10:55:04.316Z,95551.50
2022-10-13T10:57:30.670Z,95549.03
2022-10-13T10:59:57.084Z,95547.47
2022-10-13T11:02:23.560Z,95536.19
2022-10-13T11:04:49.956Z,95532.78
2022-10-13T11:07:16.300Z,95535.41
2022-10-13T11:09:42.677Z,95543.97
2022-10-13T11:12:09.055Z,95542.66
2022-10-13T11:14:35.487Z,95540.75
2022-10-13T11:17:01.881Z,95545.06
2022-10-13T11:19:28.244Z,95544.72
2022-10-13T11:21:54.617Z,95534.84
2022-10-13T11:24:20.985Z,95531.41
2022-10-13T11:26:47.369Z,95527.38
2022-10-13T11:29:13.741Z,95527.66
2022-10-13T11:31:40.112Z,95523.38
2022-10-13T11:34:06.482Z,95514.69
2022-10-13T11:36:32.837Z,95506.13
2022-10-13T11:38:59.189Z,95505.22
2022-10-13T11:41:25.563Z,95496.00
2022-10-13T11:43:51.949Z,95489.69
2022-10-13T11:46:18.305Z,95486.91
2022-10-13T11:48:44.668Z,95490.22
2022-10-13T11:51:13.900Z,95495.28
2022-10-13T11:53:42.659Z,95491.47
2022-10-13T11:56:09.034Z,95496.19
2022-10-13T11:58:35.401Z,95492.16
2022-10-13T12:01:01.784Z,95489.22
2022-10-13T12:03:28.158Z,95476.84
2022-10-13T12:05:54.519Z,95471.66
2022-10-13T12:08:20.900Z,95474.75
2022-10-13T12:10:47.243Z,95486.16
2022-10-13T12:13:13.599Z,95481.31
2022-10-13T12:15:39.989Z,95471.38
2022-10-13T12:18:06.364Z,95466.03
2022-10-13T12:20:32.727Z,95464.81
2022-10-13T12:22:59.096Z,95469.47
2022-10-13T12:25:25.461Z,95463.00
2022-10-13T12:27:51.843Z,95450.66
2022-10-13T12:30:18.225Z,95442.38
2022-10-13T12:32:44.588Z,95430.13
2022-10-13T12:35:10.971Z,95420.88
2022-10-13T12:37:37.340Z,95418.81
2022-10-13T12:40:03.710Z,95415.25
2022-10-13T12:42:30.066Z,95424.84
2022-10-13T12:44:56.432Z,95435.25
2022-10-13T12:47:22.843Z,95428.31
2022-10-13T12:49:49.192Z,95427.66
2022-10-13T12:52:15.635Z,95420.88
2022-10-13T12:54:41.994Z,95419.47
2022-10-13T12:57:08.348Z,95422.56
2022-10-13T12:59:34.807Z,95430.25
2022-10-13T13:02:01.147Z,95434.56
2022-10-13T13:04:27.509Z,95442.78
2022-10-13T13:06:53.873Z,95442.03
2022-10-13T13:09:20.219Z,95443.31
2022-10-13T13:11:46.635Z,95447.31
2022-10-13T13:14:13.000Z,95450.47
2022-10-13T13:16:39.405Z,95456.22
2022-10-13T13:19:05.785Z,95457.94
2022-10-13T13:21:32.178Z,95455.41
2022-10-13T13:23:59.455Z,95451.28
2022-10-13T13:26:27.719Z,95448.25
2022-10-13T13:28:54.096Z,95435.78
2022-10-13T13:31:20.464Z,95432.38
2022-10-13T13:33:46.829Z,95420.69
2022-10-13T13:36:13.183Z,95419.59
2022-10-13T13:38:39.529Z,95418.66
2022-10-13T13:41:05.890Z,95413.31
2022-10-13T13:43:32.260Z,95403.94
2022-10-13T13:45:58.616Z,95404.69
2022-10-13T13:48:25.008Z,95390.44
2022-10-13T13:50:51.372Z,95393.22
2022-10-13T13:53:17.720Z,95389.28
2022-10-13T13:55:44.183Z,95381.53
2022-10-13T13:58:10.569Z,95382.09
2022-10-13T14:00:36.956Z,95383.44
2022-10-13T14:03:03.376Z,95374.41
2022-10-13T14:05:29.733Z,95377.06
2022-10-13T14:07:56.075Z,95376.41
2022-10-13T14:10:22.537Z,95383.84
2022-10-13T14:12:48.908Z,95379.09
2022-10-13T14:15:15.279Z,95390.41
2022-10-13T14:17:41.648Z,95391.53
2022-10-13T14:20:08.011Z,95382.53
2022-10-13T14:22:34.368Z,95385.50
2022-10-13T14:25:00.732Z,95379.06
2022-10-13T14:27:27.111Z,95380.03
2022-10-13T14:29:53.484Z,95380.19
2022-10-13T14:32:20.094Z,95375.91
2022-10-13T14:34:46.594Z,95374.19
2022-10-13T14:37:12.955Z,95362.53
2022-10-13T14:39:39.297Z,95371.59
2022-10-13T14:42:08.683Z,95368.16
2022-10-13T14:44:35.155Z,95359.94
2022-10-13T14:47:01.510Z,95358.47
2022-10-13T14:49:27.869Z,95360.09
2022-10-13T14:51:54.245Z,95354.19
2022-10-13T14:54:20.616Z,95355.69
2022-10-13T14:56:46.965Z,95364.19
2022-10-13T14:59:13.326Z,95377.03
2022-10-13T15:01:39.683Z,95381.06
2022-10-13T15:04:06.069Z,95372.34
2022-10-13T15:06:32.436Z,95364.72
2022-10-13T15:08:58.848Z,95355.75
2022-10-13T15:11:25.376Z,95359.03
2022-10-13T15:13:51.741Z,95360.94
2022-10-13T15:16:18.095Z,95358.19
2022-10-13T15:18:44.460Z,95356.59
2022-10-13T15:21:10.837Z,95361.34
2022-10-13T15:23:37.199Z,95358.84
2022-10-13T15:26:03.572Z,95355.16
2022-10-13T15:28:29.989Z,95372.63
2022-10-13T15:30:56.366Z,95363.19
2022-10-13T15:33:22.836Z,95360.00
2022-10-13T15:35:49.191Z,95354.25
2022-10-13T15:38:15.555Z,95361.16
2022-10-13T15:40:41.934Z,95359.88
2022-10-13T15:43:08.291Z,95365.22
2022-10-13T15:45:34.659Z,95360.63
2022-10-13T15:48:03.910Z,95361.53
2022-10-13T15:50:30.331Z,95363.78
2022-10-13T15:52:56.768Z,95373.56
2022-10-13T15:55:23.123Z,95371.81
2022-10-13T15:57:49.577Z,95370.97
2022-10-13T16:00:15.932Z,95370.06
2022-10-13T16:02:42.296Z,95368.38
2022-10-13T16:05:08.677Z,95366.72
2022-10-13T16:07:35.025Z,95370.81
2022-10-13T16:10:01.404Z,95372.22
2022-10-13T16:12:27.787Z,95367.47
2022-10-13T16:14:54.152Z,95376.91
2022-10-13T16:17:20.522Z,95380.50
2022-10-13T16:19:46.901Z,95369.72
2022-10-13T16:22:13.274Z,95379.75
2022-10-13T16:24:39.645Z,95375.75
2022-10-13T16:27:06.002Z,95377.91
2022-10-13T16:29:32.359Z,95375.25
2022-10-13T16:31:58.719Z,95373.41
2022-10-13T16:34:25.081Z,95377.50
2022-10-13T16:36:51.444Z,95376.50
2022-10-13T16:39:17.788Z,95379.41
2022-10-13T16:41:44.155Z,95377.25
2022-10-13T16:44:10.536Z,95370.97
2022-10-13T16:46:36.902Z,95371.72
2022-10-13T16:49:03.263Z,95375.25
2022-10-13T16:51:29.631Z,95370.31
2022-10-13T16:53:59.823Z,95374.91
2022-10-13T16:56:29.254Z,95375.91
2022-10-13T16:58:55.621Z,95376.66
2022-10-13T17:01:21.987Z,95386.03
2022-10-13T17:03:48.355Z,95393.66
2022-10-13T17:06:14.718Z,95386.88
2022-10-13T17:08:41.081Z,95390.47
2022-10-13T17:11:07.459Z,95385.78
2022-10-13T17:13:33.836Z,95393.06
2022-10-13T17:16:00.206Z,95396.44
2022-10-13T17:18:26.581Z,95385.97
2022-10-13T17:20:52.948Z,95383.84
2022-10-13T17:23:19.329Z,95382.47
2022-10-13T17:25:45.691Z,95384.22
2022-10-13T17:28:12.121Z,95387.56
2022-10-13T17:30:38.486Z,95384.81
2022-10-13T17:33:04.853Z,95383.56
2022-10-13T17:35:31.223Z,95383.78
2022-10-13T17:37:57.585Z,95383.31
2022-10-13T17:40:23.950Z,95398.06
2022-10-13T17:42:50.340Z,95398.56
2022-10-13T17:45:16.764Z,95396.72
2022-10-13T17:47:43.116Z,95398.75
2022-10-13T17:50:09.495Z,95401.06
2022-10-13T17:52:35.929Z,95408.81
2022-10-13T17:55:02.313Z,95408.34
2022-10-13T17:57:28.676Z,95408.81
2022-10-13T17:59:55.021Z,95411.16
2022-10-13T18:02:21.380Z,95403.75
2022-10-13T18:04:47.740Z,95403.81
2022-10-13T18:07:14.137Z,95403.94
2022-10-13T18:09:40.485Z,95405.19
2022-10-13T18:12:06.874Z,95404.50
2022-10-13T18:14:33.244Z,95404.16
2022-10-13T18:16:59.615Z,95407.78
2022-10-13T18:19:25.965Z,95391.66
2022-10-13T18:21:52.359Z,95408.63
2022-10-13T18:24:18.737Z,95398.69
2022-10-13T18:26:45.099Z,95404.56
2022-10-13T18:29:11.451Z,95401.84
2022-10-13T18:31:37.862Z,95402.53
2022-10-13T18:34:04.319Z,95401.97
2022-10-13T18:36:30.677Z,95409.34
2022-10-13T18:38:57.023Z,95401.09
2022-10-13T18:41:23.388Z,95403.31
2022-10-13T18:43:49.735Z,95391.31
2022-10-13T18:46:16.107Z,95397.75
2022-10-13T18:48:42.475Z,95394.09
2022-10-13T18:51:08.876Z,95398.50
2022-10-13T18:53:35.246Z,95397.41
2022-10-13T18:56:01.609Z,95399.59
2022-10-13T18:58:27.979Z,95400.19
2022-10-13T19:00:54.377Z,95398.75
2022-10-13T19:03:20.834Z,95405.34
2022-10-13T19:05:47.191Z,95404.72
2022-10-13T19:08:13.571Z,95409.66
2022-10-13T19:10:39.931Z,95409.25
2022-10-13T19:13:06.302Z,95407.94
2022-10-13T19:15:32.689Z,95406.66
2022-10-13T19:17:59.061Z,95403.41
2022-10-13T19:20:25.437Z,95409.59
2022-10-13T19:22:51.810Z,95410.47
2022-10-13T19:25:18.188Z,95413.97
2022-10-13T19:27:44.540Z,95414.31
2022-10-13T19:30:10.899Z,95407.47
2022-10-13T19:32:37.276Z,95405.03
2022-10-13T19:35:03.661Z,95410.00
2022-10-13T19:37:30.009Z,95408.28
2022-10-13T19:39:56.402Z,95412.22
2022-10-13T19:42:22.752Z,95404.97
2022-10-13T19:44:50.421Z,95405.31
2022-10-13T19:47:16.800Z,95408.38
2022-10-13T19:49:43.168Z,95414.06
2022-10-13T19:52:09.563Z,95414.31
2022-10-13T19:54:35.927Z,95407.16
2022-10-13T19:57:02.275Z,95409.84
2022-10-13T19:59:28.620Z,95402.97
2022-10-13T20:01:54.973Z,95397.44
2022-10-13T20:04:21.332Z,95403.34
2022-10-13T20:06:48.567Z,95401.63
2022-10-13T20:09:14.909Z,95397.19
2022-10-13T20:11:41.271Z,95408.69
2022-10-13T20:14:07.637Z,95396.63
2022-10-13T20:16:33.990Z,95402.53
2022-10-13T20:19:00.359Z,95406.09
2022-10-13T20:21:26.709Z,95410.59
2022-10-13T20:23:53.086Z,95404.63
2022-10-13T20:26:19.464Z,95408.66
2022-10-13T20:28:45.846Z,95408.75
2022-10-13T20:31:12.257Z,95409.34
2022-10-13T20:33:38.622Z,95404.56
2022-10-13T20:36:04.988Z,95404.16
2022-10-13T20:38:31.338Z,95407.78
2022-10-13T20:40:57.681Z,95415.66
2022-10-13T20:43:25.851Z,95408.00
2022-10-13T20:45:52.418Z,95408.66
2022-10-13T20:48:18.781Z,95410.72
2022-10-13T20:50:45.121Z,95404.03
2022-10-13T20:53:11.485Z,95409.75
2022-10-13T20:55:41.708Z,95406.03
2022-10-13T20:58:08.398Z,95412.81
2022-10-13T21:00:34.805Z,95409.41
2022-10-13T21:03:02.291Z,95411.97
2022-10-13T21:05:28.779Z,95413.81
2022-10-13T21:07:55.121Z,95417.06
2022-10-13T21:10:25.870Z,95418.28
2022-10-13T21:12:52.237Z,95413.22
2022-10-13T21:15:18.580Z,95412.53
2022-10-13T21:17:44.948Z,95408.41
2022-10-13T21:20:11.317Z,95413.69
2022-10-13T21:22:37.691Z,95409.09
2022-10-13T21:25:04.047Z,95412.38
2022-10-13T21:27:30.388Z,95409.56
2022-10-13T21:29:56.742Z,95403.81
2022-10-13T21:32:23.092Z,95397.31
2022-10-13T21:34:49.477Z,95402.84
2022-10-13T21:37:15.865Z,95400.75
2022-10-13T21:39:42.265Z,95403.81
2022-10-13T21:42:08.625Z,95406.41
2022-10-13T21:44:35.002Z,95404.84
2022-10-13T21:47:01.369Z,95401.81
2022-10-13T21:49:27.745Z,95405.72
2022-10-13T21:51:54.102Z,95415.09
2022-10-13T21:54:20.469Z,95414.22
2022-10-13T21:56:46.823Z,95414.78
2022-10-13T21:59:13.165Z,95421.91
2022-10-13T22:01:39.519Z,95421.34
2022-10-13T22:04:05.885Z,95420.59
2022-10-13T22:06:32.260Z,95422.44
2022-10-13T22:08:58.631Z,95405.13
2022-10-13T22:11:24.984Z,95409.16
2022-10-13T22:13:51.344Z,95389.91
2022-10-13T22:16:17.722Z,95403.97
2022-10-13T22:18:44.089Z,95407.38
2022-10-13T22:21:10.452Z,95400.81
2022-10-13T22:23:36.794Z,95400.53
2022-10-13T22:26:03.165Z,95402.00
2022-10-13T22:28:33.452Z,95402.25
2022-10-13T22:31:02.525Z,95397.78
2022-10-13T22:33:28.875Z,95402.94
2022-10-13T22:35:55.254Z,95406.41
2022-10-13T22:38:21.622Z,95406.09
2022-10-13T22:40:47.964Z,95396.75
2022-10-13T22:43:14.316Z,95393.81
2022-10-13T22:45:40.677Z,95397.53
2022-10-13T22:48:07.035Z,95403.16
2022-10-13T22:50:33.399Z,95396.09
2022-10-13T22:52:59.753Z,95398.13
2022-10-13T22:55:26.115Z,95391.16
2022-10-13T22:57:52.460Z,95396.63
2022-10-13T23:00:18.815Z,95385.81
2022-10-13T23:02:45.165Z,95378.75
2022-10-13T23:05:11.524Z,95374.59
2022-10-13T23:07:37.884Z,95374.59
2022-10-13T23:10:04.269Z,95370.91
2022-10-13T23:12:30.616Z,95369.47
2022-10-13T23:14:56.985Z,95370.50
2022-10-13T23:17:23.806Z,95364.22
2022-10-13T23:19:50.383Z,95360.91
2022-10-13T23:22:16.748Z,95367.97
2022-10-13T23:24:43.104Z,95357.44
2022-10-13T23:27:09.484Z,95360.59
2022-10-13T23:29:35.823Z,95355.63
2022-10-13T23:32:05.086Z,95358.63
2022-10-13T23:34:33.837Z,95358.56
2022-10-13T23:37:00.192Z,95358.13
2022-10-13T23:39:26.560Z,95360.25
2022-10-13T23:41:52.905Z,95356.19
2022-10-13T23:44:19.278Z,95357.13
2022-10-13T23:46:45.633Z,95354.09
2022-10-13T23:49:11.984Z,95354.28
2022-10-13T23:51:38.354Z,95353.25
2022-10-13T23:54:04.713Z,95356.03
2022-10-13T23:56:31.066Z,95350.63
2022-10-13T23:58:57.409Z,95347.50
